sensor_id;sensor_type;location;lat;lon;timestamp;temperature;humidity
17296;DHT22;8766;51.480;6.872;2023-05-07T00:01:47;18.70;55.30
17296;DHT22;8766;51.480;6.872;2023-05-07T00:04:14;18.60;55.30
17296;DHT22;8766;51.480;6.872;2023-05-07T00:06:41;18.60;55.40
17296;DHT22;8766;51.480;6.872;2023-05-07T00:09:07;18.60;55.40
17296;DHT22;8766;51.480;6.872;2023-05-07T00:11:34;18.60;55.40
17296;DHT22;8766;51.480;6.872;2023-05-07T00:14:01;18.50;55.50
17296;DHT22;8766;51.480;6.872;2023-05-07T00:16:30;18.60;55.50
17296;DHT22;8766;51.480;6.872;2023-05-07T00:18:57;18.60;55.60
17296;DHT22;8766;51.480;6.872;2023-05-07T00:21:24;18.50;55.50
17296;DHT22;8766;51.480;6.872;2023-05-07T00:23:54;18.70;55.70
17296;DHT22;8766;51.480;6.872;2023-05-07T00:26:22;18.50;55.60
17296;DHT22;8766;51.480;6.872;2023-05-07T00:28:49;18.50;55.60
17296;DHT22;8766;51.480;6.872;2023-05-07T00:31:17;18.50;55.60
17296;DHT22;8766;51.480;6.872;2023-05-07T00:33:45;18.50;55.70
17296;DHT22;8766;51.480;6.872;2023-05-07T00:36:13;18.40;55.80
17296;DHT22;8766;51.480;6.872;2023-05-07T00:38:39;18.40;55.80
17296;DHT22;8766;51.480;6.872;2023-05-07T00:41:08;18.40;55.90
17296;DHT22;8766;51.480;6.872;2023-05-07T00:43:37;18.30;55.90
17296;DHT22;8766;51.480;6.872;2023-05-07T00:46:04;18.20;55.90
17296;DHT22;8766;51.480;6.872;2023-05-07T00:48:31;18.30;56.10
17296;DHT22;8766;51.480;6.872;2023-05-07T00:50:59;18.20;56.10
17296;DHT22;8766;51.480;6.872;2023-05-07T00:53:27;18.30;56.80
17296;DHT22;8766;51.480;6.872;2023-05-07T00:55:56;18.20;56.30
17296;DHT22;8766;51.480;6.872;2023-05-07T00:58:24;18.20;56.30
17296;DHT22;8766;51.480;6.872;2023-05-07T01:00:51;18.10;56.30
17296;DHT22;8766;51.480;6.872;2023-05-07T01:03:19;18.20;56.30
17296;DHT22;8766;51.480;6.872;2023-05-07T01:05:48;18.20;56.30
17296;DHT22;8766;51.480;6.872;2023-05-07T01:08:18;18.20;56.30
17296;DHT22;8766;51.480;6.872;2023-05-07T01:10:46;18.20;56.30
17296;DHT22;8766;51.480;6.872;2023-05-07T01:13:15;18.00;56.20
17296;DHT22;8766;51.480;6.872;2023-05-07T01:15:43;18.10;56.30
17296;DHT22;8766;51.480;6.872;2023-05-07T01:18:11;18.10;56.30
17296;DHT22;8766;51.480;6.872;2023-05-07T01:20:37;18.10;56.30
17296;DHT22;8766;51.480;6.872;2023-05-07T01:23:07;18.10;56.30
17296;DHT22;8766;51.480;6.872;2023-05-07T01:25:34;18.10;56.40
17296;DHT22;8766;51.480;6.872;2023-05-07T01:28:05;18.10;56.40
17296;DHT22;8766;51.480;6.872;2023-05-07T01:30:33;18.10;56.40
17296;DHT22;8766;51.480;6.872;2023-05-07T01:33:09;18.00;56.50
17296;DHT22;8766;51.480;6.872;2023-05-07T01:35:41;18.00;56.50
17296;DHT22;8766;51.480;6.872;2023-05-07T01:38:10;18.00;56.60
17296;DHT22;8766;51.480;6.872;2023-05-07T01:40:38;18.00;56.60
17296;DHT22;8766;51.480;6.872;2023-05-07T01:43:05;18.00;56.60
17296;DHT22;8766;51.480;6.872;2023-05-07T01:45:35;17.90;56.60
17296;DHT22;8766;51.480;6.872;2023-05-07T01:48:04;18.00;56.60
17296;DHT22;8766;51.480;6.872;2023-05-07T01:50:32;18.00;56.70
17296;DHT22;8766;51.480;6.872;2023-05-07T01:53:02;17.90;56.70
17296;DHT22;8766;51.480;6.872;2023-05-07T01:55:33;17.90;56.80
17296;DHT22;8766;51.480;6.872;2023-05-07T01:58:03;17.90;56.80
17296;DHT22;8766;51.480;6.872;2023-05-07T02:00:32;17.90;56.90
17296;DHT22;8766;51.480;6.872;2023-05-07T02:03:01;17.80;56.90
17296;DHT22;8766;51.480;6.872;2023-05-07T02:05:30;17.80;57.00
17296;DHT22;8766;51.480;6.872;2023-05-07T02:07:58;17.80;57.00
17296;DHT22;8766;51.480;6.872;2023-05-07T02:10:26;17.80;57.00
17296;DHT22;8766;51.480;6.872;2023-05-07T02:12:54;17.80;57.00
17296;DHT22;8766;51.480;6.872;2023-05-07T02:15:21;17.90;57.00
17296;DHT22;8766;51.480;6.872;2023-05-07T02:17:59;17.80;57.10
17296;DHT22;8766;51.480;6.872;2023-05-07T02:20:26;17.70;57.10
17296;DHT22;8766;51.480;6.872;2023-05-07T02:22:53;17.70;57.10
17296;DHT22;8766;51.480;6.872;2023-05-07T02:25:20;17.70;57.10
17296;DHT22;8766;51.480;6.872;2023-05-07T02:27:46;17.70;57.10
17296;DHT22;8766;51.480;6.872;2023-05-07T02:30:15;17.70;57.20
17296;DHT22;8766;51.480;6.872;2023-05-07T02:32:42;17.70;57.20
17296;DHT22;8766;51.480;6.872;2023-05-07T02:35:09;17.60;57.20
17296;DHT22;8766;51.480;6.872;2023-05-07T02:37:35;17.70;57.30
17296;DHT22;8766;51.480;6.872;2023-05-07T02:40:06;17.70;57.30
17296;DHT22;8766;51.480;6.872;2023-05-07T02:42:35;17.60;57.30
17296;DHT22;8766;51.480;6.872;2023-05-07T02:45:02;17.70;57.30
17296;DHT22;8766;51.480;6.872;2023-05-07T02:47:30;17.70;57.30
17296;DHT22;8766;51.480;6.872;2023-05-07T02:49:57;17.60;57.30
17296;DHT22;8766;51.480;6.872;2023-05-07T02:52:24;17.60;57.30
17296;DHT22;8766;51.480;6.872;2023-05-07T02:54:50;17.60;57.30
17296;DHT22;8766;51.480;6.872;2023-05-07T02:57:17;17.60;57.50
17296;DHT22;8766;51.480;6.872;2023-05-07T02:59:44;17.50;57.50
17296;DHT22;8766;51.480;6.872;2023-05-07T03:02:11;17.50;57.50
17296;DHT22;8766;51.480;6.872;2023-05-07T03:04:42;17.50;57.60
17296;DHT22;8766;51.480;6.872;2023-05-07T03:07:10;17.50;57.70
17296;DHT22;8766;51.480;6.872;2023-05-07T03:09:38;17.40;57.60
17296;DHT22;8766;51.480;6.872;2023-05-07T03:12:05;17.50;57.70
17296;DHT22;8766;51.480;6.872;2023-05-07T03:14:33;17.40;57.70
17296;DHT22;8766;51.480;6.872;2023-05-07T03:17:00;17.40;57.80
17296;DHT22;8766;51.480;6.872;2023-05-07T03:19:27;17.40;57.90
17296;DHT22;8766;51.480;6.872;2023-05-07T03:22:00;17.40;57.90
17296;DHT22;8766;51.480;6.872;2023-05-07T03:24:27;17.40;57.90
17296;DHT22;8766;51.480;6.872;2023-05-07T03:26:53;17.40;57.80
17296;DHT22;8766;51.480;6.872;2023-05-07T03:29:21;17.40;57.80
17296;DHT22;8766;51.480;6.872;2023-05-07T03:31:48;17.40;57.80
17296;DHT22;8766;51.480;6.872;2023-05-07T03:34:17;17.40;57.80
17296;DHT22;8766;51.480;6.872;2023-05-07T03:36:50;17.40;57.90
17296;DHT22;8766;51.480;6.872;2023-05-07T03:39:18;17.40;57.90
17296;DHT22;8766;51.480;6.872;2023-05-07T03:41:45;17.30;57.90
17296;DHT22;8766;51.480;6.872;2023-05-07T03:44:12;17.30;57.90
17296;DHT22;8766;51.480;6.872;2023-05-07T03:46:39;17.30;57.90
17296;DHT22;8766;51.480;6.872;2023-05-07T03:49:05;17.30;58.00
17296;DHT22;8766;51.480;6.872;2023-05-07T03:51:33;17.30;58.00
17296;DHT22;8766;51.480;6.872;2023-05-07T03:54:01;17.30;58.10
17296;DHT22;8766;51.480;6.872;2023-05-07T03:56:29;17.20;58.10
17296;DHT22;8766;51.480;6.872;2023-05-07T03:58:59;17.20;58.20
17296;DHT22;8766;51.480;6.872;2023-05-07T04:01:26;17.20;58.20
17296;DHT22;8766;51.480;6.872;2023-05-07T04:03:53;17.20;58.20
17296;DHT22;8766;51.480;6.872;2023-05-07T04:06:19;17.20;58.20
17296;DHT22;8766;51.480;6.872;2023-05-07T04:08:46;17.20;58.10
17296;DHT22;8766;51.480;6.872;2023-05-07T04:11:14;17.30;58.20
17296;DHT22;8766;51.480;6.872;2023-05-07T04:13:45;17.20;58.10
17296;DHT22;8766;51.480;6.872;2023-05-07T04:16:15;17.30;58.20
17296;DHT22;8766;51.480;6.872;2023-05-07T04:18:42;17.20;58.20
17296;DHT22;8766;51.480;6.872;2023-05-07T04:21:17;17.20;58.20
17296;DHT22;8766;51.480;6.872;2023-05-07T04:23:44;17.20;58.30
17296;DHT22;8766;51.480;6.872;2023-05-07T04:26:11;17.20;58.30
17296;DHT22;8766;51.480;6.872;2023-05-07T04:28:38;17.20;58.40
17296;DHT22;8766;51.480;6.872;2023-05-07T04:31:07;17.20;58.40
17296;DHT22;8766;51.480;6.872;2023-05-07T04:33:40;17.20;58.40
17296;DHT22;8766;51.480;6.872;2023-05-07T04:36:10;17.20;58.40
17296;DHT22;8766;51.480;6.872;2023-05-07T04:38:37;17.20;58.40
17296;DHT22;8766;51.480;6.872;2023-05-07T04:41:13;17.20;58.40
17296;DHT22;8766;51.480;6.872;2023-05-07T04:43:40;17.30;58.40
17296;DHT22;8766;51.480;6.872;2023-05-07T04:46:09;17.20;58.40
17296;DHT22;8766;51.480;6.872;2023-05-07T04:48:36;17.20;58.40
17296;DHT22;8766;51.480;6.872;2023-05-07T04:51:03;17.20;58.40
17296;DHT22;8766;51.480;6.872;2023-05-07T04:53:29;17.20;58.40
17296;DHT22;8766;51.480;6.872;2023-05-07T04:55:57;17.20;58.30
17296;DHT22;8766;51.480;6.872;2023-05-07T04:58:25;17.20;58.30
17296;DHT22;8766;51.480;6.872;2023-05-07T05:00:52;17.40;58.40
17296;DHT22;8766;51.480;6.872;2023-05-07T05:03:25;17.30;58.20
17296;DHT22;8766;51.480;6.872;2023-05-07T05:05:52;17.30;58.20
17296;DHT22;8766;51.480;6.872;2023-05-07T05:08:24;17.30;58.10
17296;DHT22;8766;51.480;6.872;2023-05-07T05:10:53;17.30;58.20
17296;DHT22;8766;51.480;6.872;2023-05-07T05:13:20;17.40;58.60
17296;DHT22;8766;51.480;6.872;2023-05-07T05:15:47;17.60;58.10
17296;DHT22;8766;51.480;6.872;2023-05-07T05:18:17;17.50;58.00
17296;DHT22;8766;51.480;6.872;2023-05-07T05:20:48;17.60;57.90
17296;DHT22;8766;51.480;6.872;2023-05-07T05:23:22;17.70;57.60
17296;DHT22;8766;51.480;6.872;2023-05-07T05:25:49;17.80;57.40
17296;DHT22;8766;51.480;6.872;2023-05-07T05:28:16;18.00;57.20
17296;DHT22;8766;51.480;6.872;2023-05-07T05:30:43;18.40;56.50
17296;DHT22;8766;51.480;6.872;2023-05-07T05:33:10;19.10;55.30
17296;DHT22;8766;51.480;6.872;2023-05-07T05:35:36;20.00;53.40
17296;DHT22;8766;51.480;6.872;2023-05-07T05:38:05;21.40;51.60
17296;DHT22;8766;51.480;6.872;2023-05-07T05:40:31;22.40;49.80
17296;DHT22;8766;51.480;6.872;2023-05-07T05:43:01;23.30;48.20
17296;DHT22;8766;51.480;6.872;2023-05-07T05:45:44;23.40;47.80
17296;DHT22;8766;51.480;6.872;2023-05-07T05:48:12;23.10;48.60
17296;DHT22;8766;51.480;6.872;2023-05-07T05:50:39;22.70;49.40
17296;DHT22;8766;51.480;6.872;2023-05-07T05:53:07;22.30;50.20
17296;DHT22;8766;51.480;6.872;2023-05-07T05:55:34;22.10;50.80
17296;DHT22;8766;51.480;6.872;2023-05-07T05:58:02;22.10;50.80
17296;DHT22;8766;51.480;6.872;2023-05-07T06:00:29;22.20;50.70
17296;DHT22;8766;51.480;6.872;2023-05-07T06:02:56;22.20;50.80
17296;DHT22;8766;51.480;6.872;2023-05-07T06:05:23;22.00;51.10
17296;DHT22;8766;51.480;6.872;2023-05-07T06:07:49;21.70;51.60
17296;DHT22;8766;51.480;6.872;2023-05-07T06:10:18;21.60;52.10
17296;DHT22;8766;51.480;6.872;2023-05-07T06:12:44;21.80;51.80
17296;DHT22;8766;51.480;6.872;2023-05-07T06:15:11;22.60;50.60
17296;DHT22;8766;51.480;6.872;2023-05-07T06:17:38;23.30;49.10
17296;DHT22;8766;51.480;6.872;2023-05-07T06:20:06;24.10;48.20
17296;DHT22;8766;51.480;6.872;2023-05-07T06:22:33;24.30;47.80
17296;DHT22;8766;51.480;6.872;2023-05-07T06:25:00;24.20;47.90
17296;DHT22;8766;51.480;6.872;2023-05-07T06:27:28;23.90;48.40
17296;DHT22;8766;51.480;6.872;2023-05-07T06:29:55;23.60;49.00
17296;DHT22;8766;51.480;6.872;2023-05-07T06:32:22;23.20;49.60
17296;DHT22;8766;51.480;6.872;2023-05-07T06:34:48;22.90;50.30
17296;DHT22;8766;51.480;6.872;2023-05-07T06:37:15;22.50;51.10
17296;DHT22;8766;51.480;6.872;2023-05-07T06:39:42;22.10;51.90
17296;DHT22;8766;51.480;6.872;2023-05-07T06:42:08;21.70;52.40
17296;DHT22;8766;51.480;6.872;2023-05-07T06:44:37;21.50;52.90
17296;DHT22;8766;51.480;6.872;2023-05-07T06:47:04;21.20;53.40
17296;DHT22;8766;51.480;6.872;2023-05-07T06:49:32;20.90;53.80
17296;DHT22;8766;51.480;6.872;2023-05-07T06:51:59;20.80;54.00
17296;DHT22;8766;51.480;6.872;2023-05-07T06:54:26;20.80;54.00
17296;DHT22;8766;51.480;6.872;2023-05-07T06:56:53;20.80;54.00
17296;DHT22;8766;51.480;6.872;2023-05-07T06:59:20;20.80;53.80
17296;DHT22;8766;51.480;6.872;2023-05-07T07:01:48;20.80;53.80
17296;DHT22;8766;51.480;6.872;2023-05-07T07:04:15;20.70;53.90
17296;DHT22;8766;51.480;6.872;2023-05-07T07:06:41;20.60;54.00
17296;DHT22;8766;51.480;6.872;2023-05-07T07:09:08;20.60;54.10
17296;DHT22;8766;51.480;6.872;2023-05-07T07:11:35;20.60;54.30
17296;DHT22;8766;51.480;6.872;2023-05-07T07:14:02;20.40;54.30
17296;DHT22;8766;51.480;6.872;2023-05-07T07:16:30;20.40;54.40
17296;DHT22;8766;51.480;6.872;2023-05-07T07:18:59;20.40;54.50
17296;DHT22;8766;51.480;6.872;2023-05-07T07:21:27;20.30;54.50
17296;DHT22;8766;51.480;6.872;2023-05-07T07:23:54;20.60;54.50
17296;DHT22;8766;51.480;6.872;2023-05-07T07:26:21;20.50;54.20
17296;DHT22;8766;51.480;6.872;2023-05-07T07:28:47;20.60;54.00
17296;DHT22;8766;51.480;6.872;2023-05-07T07:31:14;20.70;53.80
17296;DHT22;8766;51.480;6.872;2023-05-07T07:33:41;20.80;53.70
17296;DHT22;8766;51.480;6.872;2023-05-07T07:36:10;20.90;53.50
17296;DHT22;8766;51.480;6.872;2023-05-07T07:38:37;21.10;53.30
17296;DHT22;8766;51.480;6.872;2023-05-07T07:41:04;21.50;52.60
17296;DHT22;8766;51.480;6.872;2023-05-07T07:43:31;22.10;51.60
17296;DHT22;8766;51.480;6.872;2023-05-07T07:45:58;22.70;50.70
17296;DHT22;8766;51.480;6.872;2023-05-07T07:48:25;22.80;50.30
17296;DHT22;8766;51.480;6.872;2023-05-07T07:50:51;22.80;50.30
17296;DHT22;8766;51.480;6.872;2023-05-07T07:53:20;22.70;50.70
17296;DHT22;8766;51.480;6.872;2023-05-07T07:55:46;22.50;51.00
17296;DHT22;8766;51.480;6.872;2023-05-07T07:58:13;22.30;51.30
17296;DHT22;8766;51.480;6.872;2023-05-07T08:00:40;22.30;51.40
17296;DHT22;8766;51.480;6.872;2023-05-07T08:03:09;22.70;50.90
17296;DHT22;8766;51.480;6.872;2023-05-07T08:05:36;23.30;50.30
17296;DHT22;8766;51.480;6.872;2023-05-07T08:08:04;24.00;49.00
17296;DHT22;8766;51.480;6.872;2023-05-07T08:10:32;24.30;48.50
17296;DHT22;8766;51.480;6.872;2023-05-07T08:13:03;24.50;48.30
17296;DHT22;8766;51.480;6.872;2023-05-07T08:15:30;24.90;47.80
17296;DHT22;8766;51.480;6.872;2023-05-07T08:17:58;25.50;47.00
17296;DHT22;8766;51.480;6.872;2023-05-07T08:20:25;25.90;46.40
17296;DHT22;8766;51.480;6.872;2023-05-07T08:22:52;26.00;46.30
17296;DHT22;8766;51.480;6.872;2023-05-07T08:25:19;25.60;46.70
17296;DHT22;8766;51.480;6.872;2023-05-07T08:27:47;25.30;47.40
17296;DHT22;8766;51.480;6.872;2023-05-07T08:30:14;25.00;47.90
17296;DHT22;8766;51.480;6.872;2023-05-07T08:32:41;24.60;48.50
17296;DHT22;8766;51.480;6.872;2023-05-07T08:35:08;24.30;49.10
17296;DHT22;8766;51.480;6.872;2023-05-07T08:37:35;24.10;49.50
17296;DHT22;8766;51.480;6.872;2023-05-07T08:40:02;23.70;50.10
17296;DHT22;8766;51.480;6.872;2023-05-07T08:42:31;23.40;50.70
17296;DHT22;8766;51.480;6.872;2023-05-07T08:45:03;23.10;51.10
17296;DHT22;8766;51.480;6.872;2023-05-07T08:47:39;23.00;51.50
17296;DHT22;8766;51.480;6.872;2023-05-07T08:50:07;22.80;51.70
17296;DHT22;8766;51.480;6.872;2023-05-07T08:52:35;22.80;51.70
17296;DHT22;8766;51.480;6.872;2023-05-07T08:55:02;23.20;51.00
17296;DHT22;8766;51.480;6.872;2023-05-07T08:57:29;23.90;49.80
17296;DHT22;8766;51.480;6.872;2023-05-07T08:59:56;24.70;48.30
17296;DHT22;8766;51.480;6.872;2023-05-07T09:02:24;25.60;46.80
17296;DHT22;8766;51.480;6.872;2023-05-07T09:04:51;26.40;45.40
17296;DHT22;8766;51.480;6.872;2023-05-07T09:07:19;26.80;44.70
17296;DHT22;8766;51.480;6.872;2023-05-07T09:09:46;26.80;44.70
17296;DHT22;8766;51.480;6.872;2023-05-07T09:12:13;26.60;45.00
17296;DHT22;8766;51.480;6.872;2023-05-07T09:14:40;26.20;45.80
17296;DHT22;8766;51.480;6.872;2023-05-07T09:17:07;25.90;46.40
17296;DHT22;8766;51.480;6.872;2023-05-07T09:19:35;25.60;47.00
17296;DHT22;8766;51.480;6.872;2023-05-07T09:22:03;25.40;47.40
17296;DHT22;8766;51.480;6.872;2023-05-07T09:24:31;25.20;47.60
17296;DHT22;8766;51.480;6.872;2023-05-07T09:27:00;25.20;47.80
17296;DHT22;8766;51.480;6.872;2023-05-07T09:29:28;25.20;47.90
17296;DHT22;8766;51.480;6.872;2023-05-07T09:31:55;25.20;48.00
17296;DHT22;8766;51.480;6.872;2023-05-07T09:34:22;25.30;47.90
17296;DHT22;8766;51.480;6.872;2023-05-07T09:36:50;25.40;47.90
17296;DHT22;8766;51.480;6.872;2023-05-07T09:39:17;25.40;47.90
17296;DHT22;8766;51.480;6.872;2023-05-07T09:41:44;25.30;47.90
17296;DHT22;8766;51.480;6.872;2023-05-07T09:44:11;25.30;48.00
17296;DHT22;8766;51.480;6.872;2023-05-07T09:46:39;25.30;48.00
17296;DHT22;8766;51.480;6.872;2023-05-07T09:49:13;25.30;48.10
17296;DHT22;8766;51.480;6.872;2023-05-07T09:51:47;25.20;48.60
17296;DHT22;8766;51.480;6.872;2023-05-07T09:54:17;24.90;48.80
17296;DHT22;8766;51.480;6.872;2023-05-07T09:56:44;25.00;48.70
17296;DHT22;8766;51.480;6.872;2023-05-07T09:59:13;25.20;48.50
17296;DHT22;8766;51.480;6.872;2023-05-07T10:01:41;25.40;48.30
17296;DHT22;8766;51.480;6.872;2023-05-07T10:04:09;25.50;48.10
17296;DHT22;8766;51.480;6.872;2023-05-07T10:06:37;25.60;48.00
17296;DHT22;8766;51.480;6.872;2023-05-07T10:09:04;25.70;47.80
17296;DHT22;8766;51.480;6.872;2023-05-07T10:11:33;25.60;48.00
17296;DHT22;8766;51.480;6.872;2023-05-07T10:14:01;25.40;48.30
17296;DHT22;8766;51.480;6.872;2023-05-07T10:16:28;25.40;48.40
17296;DHT22;8766;51.480;6.872;2023-05-07T10:18:58;25.40;48.40
17296;DHT22;8766;51.480;6.872;2023-05-07T10:21:27;25.40;48.50
17296;DHT22;8766;51.480;6.872;2023-05-07T10:23:59;25.20;48.70
17296;DHT22;8766;51.480;6.872;2023-05-07T10:26:27;25.20;48.60
17296;DHT22;8766;51.480;6.872;2023-05-07T10:29:01;25.30;48.50
17296;DHT22;8766;51.480;6.872;2023-05-07T10:31:42;25.40;48.40
17296;DHT22;8766;51.480;6.872;2023-05-07T10:34:15;25.50;48.30
17296;DHT22;8766;51.480;6.872;2023-05-07T10:36:43;25.50;48.20
17296;DHT22;8766;51.480;6.872;2023-05-07T10:39:10;25.40;48.30
17296;DHT22;8766;51.480;6.872;2023-05-07T10:41:37;25.50;48.40
17296;DHT22;8766;51.480;6.872;2023-05-07T10:44:05;25.50;48.30
17296;DHT22;8766;51.480;6.872;2023-05-07T10:46:32;25.50;48.30
17296;DHT22;8766;51.480;6.872;2023-05-07T10:49:07;25.60;48.30
17296;DHT22;8766;51.480;6.872;2023-05-07T10:51:36;25.50;48.30
17296;DHT22;8766;51.480;6.872;2023-05-07T10:54:20;25.50;48.40
17296;DHT22;8766;51.480;6.872;2023-05-07T10:56:47;25.40;48.50
17296;DHT22;8766;51.480;6.872;2023-05-07T10:59:33;25.40;48.40
17296;DHT22;8766;51.480;6.872;2023-05-07T11:02:06;25.50;48.40
17296;DHT22;8766;51.480;6.872;2023-05-07T11:04:33;25.60;48.30
17296;DHT22;8766;51.480;6.872;2023-05-07T11:07:25;25.50;48.30
17296;DHT22;8766;51.480;6.872;2023-05-07T11:09:59;25.40;48.40
17296;DHT22;8766;51.480;6.872;2023-05-07T11:12:52;25.40;48.70
17296;DHT22;8766;51.480;6.872;2023-05-07T11:15:40;25.30;48.80
17296;DHT22;8766;51.480;6.872;2023-05-07T11:18:09;25.20;48.80
17296;DHT22;8766;51.480;6.872;2023-05-07T11:20:46;25.30;48.70
17296;DHT22;8766;51.480;6.872;2023-05-07T11:26:28;25.20;48.80
17296;DHT22;8766;51.480;6.872;2023-05-07T11:28:55;25.20;49.00
17296;DHT22;8766;51.480;6.872;2023-05-07T11:31:26;25.20;48.90
17296;DHT22;8766;51.480;6.872;2023-05-07T11:33:55;25.30;48.70
17296;DHT22;8766;51.480;6.872;2023-05-07T11:36:23;25.50;48.60
17296;DHT22;8766;51.480;6.872;2023-05-07T11:38:50;25.40;48.40
17296;DHT22;8766;51.480;6.872;2023-05-07T11:41:17;25.60;48.30
17296;DHT22;8766;51.480;6.872;2023-05-07T11:43:56;25.60;48.10
17296;DHT22;8766;51.480;6.872;2023-05-07T11:46:24;25.80;48.00
17296;DHT22;8766;51.480;6.872;2023-05-07T11:48:51;25.80;47.90
17296;DHT22;8766;51.480;6.872;2023-05-07T11:51:19;25.80;48.00
17296;DHT22;8766;51.480;6.872;2023-05-07T11:53:46;25.90;48.00
17296;DHT22;8766;51.480;6.872;2023-05-07T11:56:15;26.00;47.90
17296;DHT22;8766;51.480;6.872;2023-05-07T11:58:42;26.00;47.90
17296;DHT22;8766;51.480;6.872;2023-05-07T12:01:11;26.00;47.90
17296;DHT22;8766;51.480;6.872;2023-05-07T12:03:41;25.80;47.90
17296;DHT22;8766;51.480;6.872;2023-05-07T12:06:09;25.70;48.20
17296;DHT22;8766;51.480;6.872;2023-05-07T12:08:37;25.60;48.50
17296;DHT22;8766;51.480;6.872;2023-05-07T12:11:07;25.50;48.60
17296;DHT22;8766;51.480;6.872;2023-05-07T12:13:35;25.50;48.70
17296;DHT22;8766;51.480;6.872;2023-05-07T12:16:02;25.40;48.80
17296;DHT22;8766;51.480;6.872;2023-05-07T12:18:30;25.30;48.90
17296;DHT22;8766;51.480;6.872;2023-05-07T12:20:59;25.20;49.00
17296;DHT22;8766;51.480;6.872;2023-05-07T12:23:26;25.10;49.70
17296;DHT22;8766;51.480;6.872;2023-05-07T12:25:53;25.00;49.40
17296;DHT22;8766;51.480;6.872;2023-05-07T12:28:20;24.90;49.50
17296;DHT22;8766;51.480;6.872;2023-05-07T12:30:48;24.80;49.60
17296;DHT22;8766;51.480;6.872;2023-05-07T12:33:16;24.70;49.70
17296;DHT22;8766;51.480;6.872;2023-05-07T12:35:43;24.70;50.40
17296;DHT22;8766;51.480;6.872;2023-05-07T12:38:13;24.70;49.90
17296;DHT22;8766;51.480;6.872;2023-05-07T12:40:41;24.50;50.10
17296;DHT22;8766;51.480;6.872;2023-05-07T12:43:08;24.50;50.20
17296;DHT22;8766;51.480;6.872;2023-05-07T12:45:41;24.40;50.30
17296;DHT22;8766;51.480;6.872;2023-05-07T12:48:10;24.30;50.40
17296;DHT22;8766;51.480;6.872;2023-05-07T12:50:37;24.30;50.40
17296;DHT22;8766;51.480;6.872;2023-05-07T12:53:04;24.30;50.50
17296;DHT22;8766;51.480;6.872;2023-05-07T12:55:40;24.20;50.60
17296;DHT22;8766;51.480;6.872;2023-05-07T12:58:08;24.10;50.70
17296;DHT22;8766;51.480;6.872;2023-05-07T13:00:36;24.10;50.70
17296;DHT22;8766;51.480;6.872;2023-05-07T13:03:03;24.00;50.80
17296;DHT22;8766;51.480;6.872;2023-05-07T13:05:30;24.00;50.90
17296;DHT22;8766;51.480;6.872;2023-05-07T13:07:57;23.90;50.90
17296;DHT22;8766;51.480;6.872;2023-05-07T13:10:25;23.90;51.00
17296;DHT22;8766;51.480;6.872;2023-05-07T13:12:53;23.90;51.10
17296;DHT22;8766;51.480;6.872;2023-05-07T13:15:20;23.80;51.10
17296;DHT22;8766;51.480;6.872;2023-05-07T13:17:47;23.80;51.10
17296;DHT22;8766;51.480;6.872;2023-05-07T13:20:14;23.70;51.20
17296;DHT22;8766;51.480;6.872;2023-05-07T13:22:41;23.60;51.40
17296;DHT22;8766;51.480;6.872;2023-05-07T13:25:08;23.60;51.40
17296;DHT22;8766;51.480;6.872;2023-05-07T13:27:35;23.50;51.50
17296;DHT22;8766;51.480;6.872;2023-05-07T13:30:04;23.50;51.50
17296;DHT22;8766;51.480;6.872;2023-05-07T13:32:32;23.40;51.60
17296;DHT22;8766;51.480;6.872;2023-05-07T13:34:58;23.40;51.80
17296;DHT22;8766;51.480;6.872;2023-05-07T13:37:25;23.30;51.90
17296;DHT22;8766;51.480;6.872;2023-05-07T13:39:52;23.20;52.10
17296;DHT22;8766;51.480;6.872;2023-05-07T13:42:19;23.00;52.30
17296;DHT22;8766;51.480;6.872;2023-05-07T13:44:45;22.90;52.50
17296;DHT22;8766;51.480;6.872;2023-05-07T13:47:14;22.80;52.70
17296;DHT22;8766;51.480;6.872;2023-05-07T13:49:40;22.80;52.90
17296;DHT22;8766;51.480;6.872;2023-05-07T13:52:07;22.70;53.00
17296;DHT22;8766;51.480;6.872;2023-05-07T13:54:34;22.50;53.20
17296;DHT22;8766;51.480;6.872;2023-05-07T13:57:01;22.40;53.30
17296;DHT22;8766;51.480;6.872;2023-05-07T13:59:28;22.40;53.40
17296;DHT22;8766;51.480;6.872;2023-05-07T14:01:54;22.30;53.50
17296;DHT22;8766;51.480;6.872;2023-05-07T14:04:23;22.30;53.70
17296;DHT22;8766;51.480;6.872;2023-05-07T14:06:49;22.20;53.90
17296;DHT22;8766;51.480;6.872;2023-05-07T14:09:16;22.00;54.00
17296;DHT22;8766;51.480;6.872;2023-05-07T14:11:43;22.00;54.10
17296;DHT22;8766;51.480;6.872;2023-05-07T14:14:11;21.90;54.20
17296;DHT22;8766;51.480;6.872;2023-05-07T14:16:38;21.80;54.30
17296;DHT22;8766;51.480;6.872;2023-05-07T14:19:05;21.80;54.30
17296;DHT22;8766;51.480;6.872;2023-05-07T14:21:33;21.80;54.40
17296;DHT22;8766;51.480;6.872;2023-05-07T14:23:59;21.70;54.50
17296;DHT22;8766;51.480;6.872;2023-05-07T14:26:26;21.70;54.60
17296;DHT22;8766;51.480;6.872;2023-05-07T14:28:53;21.60;54.60
17296;DHT22;8766;51.480;6.872;2023-05-07T14:31:22;21.60;54.70
17296;DHT22;8766;51.480;6.872;2023-05-07T14:33:49;21.70;54.70
17296;DHT22;8766;51.480;6.872;2023-05-07T14:36:16;21.70;54.70
17296;DHT22;8766;51.480;6.872;2023-05-07T14:38:46;21.70;54.70
17296;DHT22;8766;51.480;6.872;2023-05-07T14:41:13;21.60;54.60
17296;DHT22;8766;51.480;6.872;2023-05-07T14:43:40;21.70;54.50
17296;DHT22;8766;51.480;6.872;2023-05-07T14:46:07;21.70;54.40
17296;DHT22;8766;51.480;6.872;2023-05-07T14:48:33;21.80;54.30
17296;DHT22;8766;51.480;6.872;2023-05-07T14:51:00;22.00;54.20
17296;DHT22;8766;51.480;6.872;2023-05-07T14:53:27;22.00;54.10
17296;DHT22;8766;51.480;6.872;2023-05-07T14:55:55;22.00;54.10
17296;DHT22;8766;51.480;6.872;2023-05-07T14:58:22;22.00;54.00
17296;DHT22;8766;51.480;6.872;2023-05-07T15:00:49;22.10;54.10
17296;DHT22;8766;51.480;6.872;2023-05-07T15:03:15;21.90;54.60
17296;DHT22;8766;51.480;6.872;2023-05-07T15:05:42;22.10;54.10
17296;DHT22;8766;51.480;6.872;2023-05-07T15:08:09;22.00;54.00
17296;DHT22;8766;51.480;6.872;2023-05-07T15:10:38;22.10;54.00
17296;DHT22;8766;51.480;6.872;2023-05-07T15:13:08;22.00;54.00
17296;DHT22;8766;51.480;6.872;2023-05-07T15:15:35;22.10;54.10
17296;DHT22;8766;51.480;6.872;2023-05-07T15:18:03;22.20;54.10
17296;DHT22;8766;51.480;6.872;2023-05-07T15:20:29;22.20;54.00
17296;DHT22;8766;51.480;6.872;2023-05-07T15:22:56;22.30;53.90
17296;DHT22;8766;51.480;6.872;2023-05-07T15:25:23;22.30;53.90
17296;DHT22;8766;51.480;6.872;2023-05-07T15:27:50;22.30;53.90
17296;DHT22;8766;51.480;6.872;2023-05-07T15:30:19;22.30;54.00
17296;DHT22;8766;51.480;6.872;2023-05-07T15:32:46;22.30;53.90
17296;DHT22;8766;51.480;6.872;2023-05-07T15:35:13;22.30;54.00
17296;DHT22;8766;51.480;6.872;2023-05-07T15:37:40;22.40;54.10
17296;DHT22;8766;51.480;6.872;2023-05-07T15:40:07;22.20;54.00
17296;DHT22;8766;51.480;6.872;2023-05-07T15:42:34;22.30;54.20
17296;DHT22;8766;51.480;6.872;2023-05-07T15:45:01;22.20;54.20
17296;DHT22;8766;51.480;6.872;2023-05-07T15:47:32;22.20;54.30
17296;DHT22;8766;51.480;6.872;2023-05-07T15:49:59;22.20;54.30
17296;DHT22;8766;51.480;6.872;2023-05-07T15:52:26;22.10;54.30
17296;DHT22;8766;51.480;6.872;2023-05-07T15:54:53;22.20;54.40